Main page
METAR-TAF:

METAR-TAF

Airports :

Evelyn Sharp Field

Ord, Nebraska, United States

latitude: 41-37-27N, longitude: 098-57-09W, elevation: 2070 ft

Current weather observation

The report was made 35 minutes ago, at 00:53 UTC
Wind 7 mph from the South/Southeast
Temperature 68°F
Humidity 56%
Pressure 29.68 in. Hg
Visibility: 10 miles
Clear sky

METAR: KODX 070053Z AUTO 15006KT 10SM CLR 20/11 A2968 RMK AO2 SLP049 T02000106

Time: 20:28 (01:28 UTC)


TAF: missing

Weather observations and forecasts of more than 4000 airports (METAR and TAF reports).

The available stations are represented by yellow and red dots on the map.

Hover mouse over dot to see the name of the station.

Then click to see weather observations and forecasts.

To change the map : click on the green buttons with a black cross to zoom in, on the green button with a dash to zoom out, or on the green arrows for adjacent maps.


METAR-TAF: